sensor_id;sensor_type;location;lat;lon;timestamp;P1;durP1;ratioP1;P2;durP2;ratioP2
3155;SDS011;1588;50.892;7.082;2023-04-24T00:03:59;1.83;;;0.87;;
3155;SDS011;1588;50.892;7.082;2023-04-24T00:09:04;2.60;;;1.20;;
3155;SDS011;1588;50.892;7.082;2023-04-24T00:14:06;1.67;;;1.10;;
3155;SDS011;1588;50.892;7.082;2023-04-24T00:19:10;3.03;;;1.17;;
3155;SDS011;1588;50.892;7.082;2023-04-24T00:24:13;2.13;;;1.00;;
3155;SDS011;1588;50.892;7.082;2023-04-24T00:29:18;3.17;;;1.23;;
3155;SDS011;1588;50.892;7.082;2023-04-24T00:34:23;2.93;;;1.40;;
3155;SDS011;1588;50.892;7.082;2023-04-24T00:39:26;4.77;;;2.60;;
3155;SDS011;1588;50.892;7.082;2023-04-24T00:44:28;1.00;;;0.90;;
3155;SDS011;1588;50.892;7.082;2023-04-24T00:49:32;1.83;;;0.93;;
3155;SDS011;1588;50.892;7.082;2023-04-24T00:54:34;1.10;;;1.00;;
3155;SDS011;1588;50.892;7.082;2023-04-24T00:59:36;1.10;;;1.00;;
3155;SDS011;1588;50.892;7.082;2023-04-24T01:04:42;1.63;;;1.17;;
3155;SDS011;1588;50.892;7.082;2023-04-24T01:09:45;1.10;;;1.00;;
3155;SDS011;1588;50.892;7.082;2023-04-24T01:14:49;1.67;;;1.30;;
3155;SDS011;1588;50.892;7.082;2023-04-24T01:19:53;2.20;;;1.07;;
3155;SDS011;1588;50.892;7.082;2023-04-24T01:24:58;1.57;;;1.23;;
3155;SDS011;1588;50.892;7.082;2023-04-24T01:30:00;1.63;;;1.33;;
3155;SDS011;1588;50.892;7.082;2023-04-24T01:35:04;1.50;;;1.27;;
3155;SDS011;1588;50.892;7.082;2023-04-24T01:40:09;2.13;;;1.50;;
3155;SDS011;1588;50.892;7.082;2023-04-24T01:45:11;2.30;;;1.40;;
3155;SDS011;1588;50.892;7.082;2023-04-24T01:50:14;3.00;;;1.50;;
3155;SDS011;1588;50.892;7.082;2023-04-24T01:55:18;2.90;;;2.00;;
3155;SDS011;1588;50.892;7.082;2023-04-24T02:00:22;7.67;;;2.43;;
3155;SDS011;1588;50.892;7.082;2023-04-24T02:05:44;9.93;;;2.20;;
3155;SDS011;1588;50.892;7.082;2023-04-24T02:10:47;2.93;;;2.30;;
3155;SDS011;1588;50.892;7.082;2023-04-24T02:15:50;4.10;;;2.67;;
3155;SDS011;1588;50.892;7.082;2023-04-24T02:20:52;4.17;;;2.90;;
3155;SDS011;1588;50.892;7.082;2023-04-24T02:25:58;3.37;;;2.57;;
3155;SDS011;1588;50.892;7.082;2023-04-24T02:31:00;4.60;;;2.90;;
3155;SDS011;1588;50.892;7.082;2023-04-24T02:36:02;6.77;;;3.00;;
3155;SDS011;1588;50.892;7.082;2023-04-24T02:41:07;7.27;;;3.33;;
3155;SDS011;1588;50.892;7.082;2023-04-24T02:46:10;6.67;;;3.60;;
3155;SDS011;1588;50.892;7.082;2023-04-24T02:51:14;7.87;;;4.50;;
3155;SDS011;1588;50.892;7.082;2023-04-24T02:56:17;9.30;;;4.83;;
3155;SDS011;1588;50.892;7.082;2023-04-24T03:01:20;6.13;;;3.80;;
3155;SDS011;1588;50.892;7.082;2023-04-24T03:06:23;7.10;;;4.03;;
3155;SDS011;1588;50.892;7.082;2023-04-24T03:11:26;8.63;;;4.50;;
3155;SDS011;1588;50.892;7.082;2023-04-24T03:16:30;8.77;;;4.47;;
3155;SDS011;1588;50.892;7.082;2023-04-24T03:21:33;7.80;;;4.20;;
3155;SDS011;1588;50.892;7.082;2023-04-24T03:26:47;9.97;;;4.73;;
3155;SDS011;1588;50.892;7.082;2023-04-24T03:31:49;8.30;;;4.37;;
3155;SDS011;1588;50.892;7.082;2023-04-24T03:36:51;7.67;;;4.67;;
3155;SDS011;1588;50.892;7.082;2023-04-24T03:41:55;7.97;;;4.10;;
3155;SDS011;1588;50.892;7.082;2023-04-24T03:46:57;9.53;;;4.80;;
3155;SDS011;1588;50.892;7.082;2023-04-24T03:51:59;7.93;;;4.90;;
3155;SDS011;1588;50.892;7.082;2023-04-24T03:57:03;8.50;;;4.87;;
3155;SDS011;1588;50.892;7.082;2023-04-24T04:02:05;9.77;;;5.23;;
3155;SDS011;1588;50.892;7.082;2023-04-24T04:07:08;9.20;;;4.47;;
3155;SDS011;1588;50.892;7.082;2023-04-24T04:12:11;8.20;;;4.77;;
3155;SDS011;1588;50.892;7.082;2023-04-24T04:17:14;8.83;;;5.00;;
3155;SDS011;1588;50.892;7.082;2023-04-24T04:22:16;10.70;;;5.10;;
3155;SDS011;1588;50.892;7.082;2023-04-24T04:27:20;6.97;;;4.80;;
3155;SDS011;1588;50.892;7.082;2023-04-24T04:32:25;9.77;;;5.67;;
3155;SDS011;1588;50.892;7.082;2023-04-24T04:37:27;8.13;;;4.73;;
3155;SDS011;1588;50.892;7.082;2023-04-24T04:42:31;12.07;;;5.30;;
3155;SDS011;1588;50.892;7.082;2023-04-24T04:47:34;7.70;;;4.80;;
3155;SDS011;1588;50.892;7.082;2023-04-24T04:52:37;8.37;;;5.47;;
3155;SDS011;1588;50.892;7.082;2023-04-24T04:57:40;13.70;;;6.03;;
3155;SDS011;1588;50.892;7.082;2023-04-24T05:02:44;9.50;;;5.30;;
3155;SDS011;1588;50.892;7.082;2023-04-24T05:07:46;8.27;;;5.77;;
3155;SDS011;1588;50.892;7.082;2023-04-24T05:12:49;12.07;;;5.03;;
3155;SDS011;1588;50.892;7.082;2023-04-24T05:17:52;12.57;;;5.70;;
3155;SDS011;1588;50.892;7.082;2023-04-24T05:22:54;7.10;;;5.23;;
3155;SDS011;1588;50.892;7.082;2023-04-24T05:27:58;7.10;;;5.23;;
3155;SDS011;1588;50.892;7.082;2023-04-24T05:33:03;15.73;;;5.53;;
3155;SDS011;1588;50.892;7.082;2023-04-24T05:38:05;10.67;;;6.00;;
3155;SDS011;1588;50.892;7.082;2023-04-24T05:43:09;8.30;;;5.37;;
3155;SDS011;1588;50.892;7.082;2023-04-24T05:48:11;8.40;;;5.17;;
3155;SDS011;1588;50.892;7.082;2023-04-24T05:53:13;7.97;;;4.70;;
3155;SDS011;1588;50.892;7.082;2023-04-24T05:58:17;10.40;;;5.50;;
3155;SDS011;1588;50.892;7.082;2023-04-24T06:03:22;7.50;;;4.60;;
3155;SDS011;1588;50.892;7.082;2023-04-24T06:08:24;8.83;;;5.07;;
3155;SDS011;1588;50.892;7.082;2023-04-24T06:13:28;13.97;;;4.37;;
3155;SDS011;1588;50.892;7.082;2023-04-24T06:18:30;12.07;;;5.80;;
3155;SDS011;1588;50.892;7.082;2023-04-24T06:23:33;7.60;;;4.47;;
3155;SDS011;1588;50.892;7.082;2023-04-24T06:28:36;9.43;;;5.10;;
3155;SDS011;1588;50.892;7.082;2023-04-24T06:33:39;8.50;;;5.17;;
3155;SDS011;1588;50.892;7.082;2023-04-24T06:38:41;8.07;;;4.97;;
3155;SDS011;1588;50.892;7.082;2023-04-24T06:43:46;5.73;;;3.87;;
3155;SDS011;1588;50.892;7.082;2023-04-24T06:48:48;7.13;;;4.57;;
3155;SDS011;1588;50.892;7.082;2023-04-24T06:53:51;5.33;;;4.10;;
3155;SDS011;1588;50.892;7.082;2023-04-24T06:58:58;7.23;;;2.70;;
3155;SDS011;1588;50.892;7.082;2023-04-24T07:04:00;3.73;;;2.97;;
3155;SDS011;1588;50.892;7.082;2023-04-24T07:09:02;4.63;;;3.00;;
3155;SDS011;1588;50.892;7.082;2023-04-24T07:14:06;3.37;;;2.40;;
3155;SDS011;1588;50.892;7.082;2023-04-24T07:19:08;4.40;;;3.07;;
3155;SDS011;1588;50.892;7.082;2023-04-24T07:24:14;5.07;;;3.47;;
3155;SDS011;1588;50.892;7.082;2023-04-24T07:29:17;3.70;;;2.77;;
3155;SDS011;1588;50.892;7.082;2023-04-24T07:34:20;2.63;;;2.20;;
3155;SDS011;1588;50.892;7.082;2023-04-24T07:39:22;7.23;;;2.40;;
3155;SDS011;1588;50.892;7.082;2023-04-24T07:44:26;2.50;;;1.80;;
3155;SDS011;1588;50.892;7.082;2023-04-24T07:49:29;2.43;;;2.07;;
3155;SDS011;1588;50.892;7.082;2023-04-24T07:54:31;4.40;;;1.90;;
3155;SDS011;1588;50.892;7.082;2023-04-24T07:59:35;3.03;;;2.10;;
3155;SDS011;1588;50.892;7.082;2023-04-24T08:04:37;3.73;;;1.93;;
3155;SDS011;1588;50.892;7.082;2023-04-24T08:09:39;2.47;;;1.67;;
3155;SDS011;1588;50.892;7.082;2023-04-24T08:14:42;1.80;;;1.50;;
3155;SDS011;1588;50.892;7.082;2023-04-24T08:19:45;2.30;;;1.53;;
3155;SDS011;1588;50.892;7.082;2023-04-24T08:24:49;1.87;;;1.40;;
3155;SDS011;1588;50.892;7.082;2023-04-24T08:29:53;2.77;;;1.93;;
3155;SDS011;1588;50.892;7.082;2023-04-24T08:34:58;1.63;;;1.20;;
3155;SDS011;1588;50.892;7.082;2023-04-24T08:40:01;2.10;;;1.10;;
3155;SDS011;1588;50.892;7.082;2023-04-24T08:45:05;2.40;;;1.37;;
3155;SDS011;1588;50.892;7.082;2023-04-24T08:50:09;2.13;;;1.30;;
3155;SDS011;1588;50.892;7.082;2023-04-24T08:55:15;2.33;;;1.60;;
3155;SDS011;1588;50.892;7.082;2023-04-24T09:00:20;1.20;;;1.10;;
3155;SDS011;1588;50.892;7.082;2023-04-24T09:05:23;3.50;;;1.90;;
3155;SDS011;1588;50.892;7.082;2023-04-24T09:10:25;4.13;;;2.20;;
3155;SDS011;1588;50.892;7.082;2023-04-24T09:15:32;4.53;;;2.20;;
3155;SDS011;1588;50.892;7.082;2023-04-24T09:20:34;6.93;;;2.83;;
3155;SDS011;1588;50.892;7.082;2023-04-24T09:25:57;5.40;;;2.80;;
3155;SDS011;1588;50.892;7.082;2023-04-24T09:31:03;3.70;;;2.33;;
3155;SDS011;1588;50.892;7.082;2023-04-24T09:36:07;6.23;;;2.90;;
3155;SDS011;1588;50.892;7.082;2023-04-24T09:41:12;6.87;;;3.90;;
3155;SDS011;1588;50.892;7.082;2023-04-24T09:46:18;4.47;;;3.47;;
3155;SDS011;1588;50.892;7.082;2023-04-24T09:51:32;8.27;;;3.93;;
3155;SDS011;1588;50.892;7.082;2023-04-24T09:56:36;7.40;;;4.10;;
3155;SDS011;1588;50.892;7.082;2023-04-24T10:01:48;7.70;;;4.23;;
3155;SDS011;1588;50.892;7.082;2023-04-24T10:07:02;9.40;;;4.77;;
3155;SDS011;1588;50.892;7.082;2023-04-24T10:12:07;9.10;;;4.80;;
3155;SDS011;1588;50.892;7.082;2023-04-24T10:17:11;19.47;;;5.33;;
3155;SDS011;1588;50.892;7.082;2023-04-24T10:22:14;11.03;;;5.93;;
3155;SDS011;1588;50.892;7.082;2023-04-24T10:27:21;13.50;;;5.30;;
3155;SDS011;1588;50.892;7.082;2023-04-24T10:32:26;11.10;;;5.27;;
3155;SDS011;1588;50.892;7.082;2023-04-24T10:37:28;9.90;;;4.37;;
3155;SDS011;1588;50.892;7.082;2023-04-24T10:42:39;7.60;;;3.87;;
3155;SDS011;1588;50.892;7.082;2023-04-24T10:47:44;5.50;;;3.57;;
3155;SDS011;1588;50.892;7.082;2023-04-24T10:53:06;7.07;;;4.17;;
3155;SDS011;1588;50.892;7.082;2023-04-24T10:58:10;9.30;;;3.83;;
3155;SDS011;1588;50.892;7.082;2023-04-24T11:03:23;5.30;;;3.40;;
3155;SDS011;1588;50.892;7.082;2023-04-24T11:08:28;11.00;;;3.73;;
3155;SDS011;1588;50.892;7.082;2023-04-24T11:18:49;11.37;;;4.77;;
3155;SDS011;1588;50.892;7.082;2023-04-24T11:24:22;10.57;;;5.00;;
3155;SDS011;1588;50.892;7.082;2023-04-24T11:29:42;12.10;;;4.30;;
3155;SDS011;1588;50.892;7.082;2023-04-24T11:34:56;10.60;;;4.97;;
3155;SDS011;1588;50.892;7.082;2023-04-24T11:39:59;9.90;;;5.10;;
3155;SDS011;1588;50.892;7.082;2023-04-24T11:45:07;11.20;;;4.90;;
3155;SDS011;1588;50.892;7.082;2023-04-24T11:50:13;9.00;;;4.70;;
3155;SDS011;1588;50.892;7.082;2023-04-24T11:55:23;9.60;;;4.43;;
3155;SDS011;1588;50.892;7.082;2023-04-24T12:00:31;12.90;;;4.93;;
3155;SDS011;1588;50.892;7.082;2023-04-24T12:05:38;9.57;;;4.00;;
3155;SDS011;1588;50.892;7.082;2023-04-24T12:10:40;9.80;;;4.00;;
3155;SDS011;1588;50.892;7.082;2023-04-24T12:15:43;10.70;;;4.77;;
3155;SDS011;1588;50.892;7.082;2023-04-24T12:20:47;10.20;;;5.47;;
3155;SDS011;1588;50.892;7.082;2023-04-24T12:25:50;8.10;;;4.50;;
3155;SDS011;1588;50.892;7.082;2023-04-24T12:30:54;12.90;;;4.53;;
3155;SDS011;1588;50.892;7.082;2023-04-24T12:35:58;12.83;;;3.73;;
3155;SDS011;1588;50.892;7.082;2023-04-24T12:41:02;16.87;;;4.77;;
3155;SDS011;1588;50.892;7.082;2023-04-24T12:46:05;8.50;;;4.00;;
3155;SDS011;1588;50.892;7.082;2023-04-24T12:51:14;11.50;;;5.33;;
3155;SDS011;1588;50.892;7.082;2023-04-24T12:56:17;12.67;;;4.53;;
3155;SDS011;1588;50.892;7.082;2023-04-24T13:01:20;9.70;;;4.07;;
3155;SDS011;1588;50.892;7.082;2023-04-24T13:06:24;12.00;;;5.17;;
3155;SDS011;1588;50.892;7.082;2023-04-24T13:11:28;9.90;;;4.33;;
3155;SDS011;1588;50.892;7.082;2023-04-24T13:16:31;14.23;;;4.90;;
3155;SDS011;1588;50.892;7.082;2023-04-24T13:21:36;13.50;;;4.43;;
3155;SDS011;1588;50.892;7.082;2023-04-24T13:26:39;13.90;;;5.20;;
3155;SDS011;1588;50.892;7.082;2023-04-24T13:31:45;16.70;;;5.00;;
3155;SDS011;1588;50.892;7.082;2023-04-24T13:36:54;9.50;;;5.07;;
3155;SDS011;1588;50.892;7.082;2023-04-24T13:42:11;14.77;;;5.57;;
3155;SDS011;1588;50.892;7.082;2023-04-24T13:47:26;16.20;;;5.43;;
3155;SDS011;1588;50.892;7.082;2023-04-24T13:53:01;13.87;;;5.70;;
3155;SDS011;1588;50.892;7.082;2023-04-24T13:58:23;11.07;;;4.50;;
3155;SDS011;1588;50.892;7.082;2023-04-24T14:03:35;14.47;;;5.13;;
3155;SDS011;1588;50.892;7.082;2023-04-24T14:08:41;10.20;;;4.87;;
3155;SDS011;1588;50.892;7.082;2023-04-24T14:14:02;12.43;;;4.77;;
3155;SDS011;1588;50.892;7.082;2023-04-24T14:19:09;19.90;;;4.83;;
3155;SDS011;1588;50.892;7.082;2023-04-24T14:24:49;8.40;;;4.83;;
3155;SDS011;1588;50.892;7.082;2023-04-24T14:35:47;7.10;;;4.00;;
3155;SDS011;1588;50.892;7.082;2023-04-24T14:40:54;12.33;;;5.57;;
3155;SDS011;1588;50.892;7.082;2023-04-24T14:46:01;10.13;;;4.40;;
3155;SDS011;1588;50.892;7.082;2023-04-24T14:51:04;9.67;;;4.50;;
3155;SDS011;1588;50.892;7.082;2023-04-24T14:56:09;7.43;;;4.90;;
3155;SDS011;1588;50.892;7.082;2023-04-24T15:01:11;12.63;;;4.50;;
3155;SDS011;1588;50.892;7.082;2023-04-24T15:06:14;10.80;;;3.90;;
3155;SDS011;1588;50.892;7.082;2023-04-24T15:11:19;11.10;;;4.63;;
3155;SDS011;1588;50.892;7.082;2023-04-24T15:16:27;12.70;;;4.73;;
3155;SDS011;1588;50.892;7.082;2023-04-24T15:21:29;8.10;;;4.13;;
3155;SDS011;1588;50.892;7.082;2023-04-24T15:26:34;11.90;;;4.70;;
3155;SDS011;1588;50.892;7.082;2023-04-24T15:31:36;6.83;;;4.13;;
3155;SDS011;1588;50.892;7.082;2023-04-24T15:36:40;10.53;;;3.87;;
3155;SDS011;1588;50.892;7.082;2023-04-24T15:41:44;5.40;;;3.80;;
3155;SDS011;1588;50.892;7.082;2023-04-24T15:47:01;8.30;;;4.20;;
3155;SDS011;1588;50.892;7.082;2023-04-24T15:52:38;6.90;;;4.23;;
3155;SDS011;1588;50.892;7.082;2023-04-24T15:57:43;10.83;;;4.13;;
3155;SDS011;1588;50.892;7.082;2023-04-24T16:02:46;10.53;;;3.97;;
3155;SDS011;1588;50.892;7.082;2023-04-24T16:07:49;8.60;;;4.50;;
3155;SDS011;1588;50.892;7.082;2023-04-24T16:12:56;6.00;;;3.90;;
3155;SDS011;1588;50.892;7.082;2023-04-24T16:18:00;10.67;;;4.20;;
3155;SDS011;1588;50.892;7.082;2023-04-24T16:23:04;9.73;;;5.00;;
3155;SDS011;1588;50.892;7.082;2023-04-24T16:28:08;7.70;;;4.43;;
3155;SDS011;1588;50.892;7.082;2023-04-24T16:33:11;9.30;;;3.90;;
3155;SDS011;1588;50.892;7.082;2023-04-24T16:38:17;7.30;;;4.00;;
3155;SDS011;1588;50.892;7.082;2023-04-24T16:43:22;9.57;;;3.70;;
3155;SDS011;1588;50.892;7.082;2023-04-24T16:48:28;8.10;;;4.13;;
3155;SDS011;1588;50.892;7.082;2023-04-24T16:53:42;8.00;;;4.10;;
3155;SDS011;1588;50.892;7.082;2023-04-24T16:58:50;9.67;;;4.10;;
3155;SDS011;1588;50.892;7.082;2023-04-24T17:04:05;7.70;;;4.10;;
3155;SDS011;1588;50.892;7.082;2023-04-24T17:09:11;12.13;;;3.90;;
3155;SDS011;1588;50.892;7.082;2023-04-24T17:14:16;7.70;;;3.80;;
3155;SDS011;1588;50.892;7.082;2023-04-24T17:19:19;6.10;;;3.70;;
3155;SDS011;1588;50.892;7.082;2023-04-24T17:24:22;7.10;;;3.70;;
3155;SDS011;1588;50.892;7.082;2023-04-24T17:29:47;5.87;;;3.10;;
3155;SDS011;1588;50.892;7.082;2023-04-24T17:34:49;11.27;;;3.37;;
3155;SDS011;1588;50.892;7.082;2023-04-24T17:39:56;4.67;;;3.50;;
3155;SDS011;1588;50.892;7.082;2023-04-24T17:45:01;3.60;;;2.73;;
3155;SDS011;1588;50.892;7.082;2023-04-24T17:50:08;6.33;;;2.97;;
3155;SDS011;1588;50.892;7.082;2023-04-24T17:55:11;9.00;;;3.57;;
3155;SDS011;1588;50.892;7.082;2023-04-24T18:00:17;5.50;;;2.90;;
3155;SDS011;1588;50.892;7.082;2023-04-24T18:05:20;10.77;;;2.80;;
3155;SDS011;1588;50.892;7.082;2023-04-24T18:10:22;3.50;;;2.53;;
3155;SDS011;1588;50.892;7.082;2023-04-24T18:15:28;5.60;;;2.63;;
3155;SDS011;1588;50.892;7.082;2023-04-24T18:20:31;7.87;;;2.70;;
3155;SDS011;1588;50.892;7.082;2023-04-24T18:25:36;12.97;;;3.17;;
3155;SDS011;1588;50.892;7.082;2023-04-24T18:30:42;6.70;;;2.53;;
3155;SDS011;1588;50.892;7.082;2023-04-24T18:35:51;2.90;;;2.50;;
3155;SDS011;1588;50.892;7.082;2023-04-24T18:40:54;11.83;;;2.60;;
3155;SDS011;1588;50.892;7.082;2023-04-24T18:46:07;4.33;;;2.20;;
3155;SDS011;1588;50.892;7.082;2023-04-24T18:51:11;2.40;;;2.20;;
3155;SDS011;1588;50.892;7.082;2023-04-24T18:56:19;4.47;;;2.60;;
3155;SDS011;1588;50.892;7.082;2023-04-24T19:01:27;7.23;;;2.23;;
3155;SDS011;1588;50.892;7.082;2023-04-24T19:06:32;23.67;;;7.90;;
3155;SDS011;1588;50.892;7.082;2023-04-24T19:11:38;8.93;;;2.90;;
3155;SDS011;1588;50.892;7.082;2023-04-24T19:16:42;5.70;;;2.80;;
3155;SDS011;1588;50.892;7.082;2023-04-24T19:21:45;3.40;;;2.60;;
3155;SDS011;1588;50.892;7.082;2023-04-24T19:26:49;4.07;;;2.50;;
3155;SDS011;1588;50.892;7.082;2023-04-24T19:31:56;5.63;;;2.90;;
3155;SDS011;1588;50.892;7.082;2023-04-24T19:36:58;5.93;;;3.10;;
3155;SDS011;1588;50.892;7.082;2023-04-24T19:42:07;9.93;;;2.97;;
3155;SDS011;1588;50.892;7.082;2023-04-24T19:47:14;4.50;;;2.87;;
3155;SDS011;1588;50.892;7.082;2023-04-24T19:52:18;12.67;;;3.30;;
3155;SDS011;1588;50.892;7.082;2023-04-24T19:57:21;4.53;;;2.33;;
3155;SDS011;1588;50.892;7.082;2023-04-24T20:02:26;7.37;;;2.60;;
3155;SDS011;1588;50.892;7.082;2023-04-24T20:07:36;11.27;;;2.60;;
3155;SDS011;1588;50.892;7.082;2023-04-24T20:12:41;7.63;;;2.90;;
3155;SDS011;1588;50.892;7.082;2023-04-24T20:18:09;11.37;;;3.37;;
3155;SDS011;1588;50.892;7.082;2023-04-24T20:23:13;5.33;;;3.50;;
3155;SDS011;1588;50.892;7.082;2023-04-24T20:28:46;4.20;;;2.60;;
3155;SDS011;1588;50.892;7.082;2023-04-24T20:34:04;7.37;;;2.73;;
3155;SDS011;1588;50.892;7.082;2023-04-24T20:39:22;11.73;;;3.40;;
3155;SDS011;1588;50.892;7.082;2023-04-24T20:44:26;7.90;;;2.97;;
3155;SDS011;1588;50.892;7.082;2023-04-24T20:49:37;10.83;;;3.00;;
3155;SDS011;1588;50.892;7.082;2023-04-24T20:54:45;5.97;;;2.93;;
3155;SDS011;1588;50.892;7.082;2023-04-24T20:59:51;12.53;;;3.97;;
3155;SDS011;1588;50.892;7.082;2023-04-24T21:11:27;9.93;;;3.47;;
3155;SDS011;1588;50.892;7.082;2023-04-24T21:16:51;10.20;;;3.00;;
3155;SDS011;1588;50.892;7.082;2023-04-24T21:22:16;5.70;;;2.87;;
3155;SDS011;1588;50.892;7.082;2023-04-24T21:27:50;5.63;;;3.33;;
3155;SDS011;1588;50.892;7.082;2023-04-24T21:33:18;9.00;;;3.70;;
3155;SDS011;1588;50.892;7.082;2023-04-24T21:38:25;13.00;;;4.40;;
3155;SDS011;1588;50.892;7.082;2023-04-24T21:43:27;5.00;;;2.63;;
3155;SDS011;1588;50.892;7.082;2023-04-24T21:48:30;4.70;;;3.03;;
3155;SDS011;1588;50.892;7.082;2023-04-24T21:53:34;7.80;;;2.80;;
3155;SDS011;1588;50.892;7.082;2023-04-24T21:58:46;5.47;;;2.63;;
3155;SDS011;1588;50.892;7.082;2023-04-24T22:03:49;7.50;;;3.37;;
3155;SDS011;1588;50.892;7.082;2023-04-24T22:08:56;10.57;;;3.60;;
3155;SDS011;1588;50.892;7.082;2023-04-24T22:13:59;5.43;;;3.07;;
3155;SDS011;1588;50.892;7.082;2023-04-24T22:19:02;5.47;;;2.77;;
3155;SDS011;1588;50.892;7.082;2023-04-24T22:24:11;12.70;;;2.93;;
3155;SDS011;1588;50.892;7.082;2023-04-24T22:29:14;7.13;;;2.93;;
3155;SDS011;1588;50.892;7.082;2023-04-24T22:34:17;10.20;;;3.50;;
3155;SDS011;1588;50.892;7.082;2023-04-24T22:39:21;3.77;;;2.27;;
3155;SDS011;1588;50.892;7.082;2023-04-24T22:44:25;7.53;;;3.20;;
3155;SDS011;1588;50.892;7.082;2023-04-24T22:49:28;9.30;;;2.77;;
3155;SDS011;1588;50.892;7.082;2023-04-24T22:54:33;5.90;;;3.07;;
3155;SDS011;1588;50.892;7.082;2023-04-24T22:59:35;4.33;;;2.90;;
3155;SDS011;1588;50.892;7.082;2023-04-24T23:04:38;8.30;;;3.33;;
3155;SDS011;1588;50.892;7.082;2023-04-24T23:09:42;6.10;;;2.80;;
3155;SDS011;1588;50.892;7.082;2023-04-24T23:14:45;13.23;;;3.77;;
3155;SDS011;1588;50.892;7.082;2023-04-24T23:19:48;18.43;;;4.30;;
3155;SDS011;1588;50.892;7.082;2023-04-24T23:24:52;11.10;;;3.57;;
3155;SDS011;1588;50.892;7.082;2023-04-24T23:29:56;17.93;;;3.60;;
3155;SDS011;1588;50.892;7.082;2023-04-24T23:34:59;10.47;;;4.67;;
3155;SDS011;1588;50.892;7.082;2023-04-24T23:40:06;8.30;;;3.70;;
3155;SDS011;1588;50.892;7.082;2023-04-24T23:45:10;6.77;;;3.93;;
3155;SDS011;1588;50.892;7.082;2023-04-24T23:50:12;11.17;;;3.80;;
3155;SDS011;1588;50.892;7.082;2023-04-24T23:55:18;10.80;;;4.13;;
